createdAt,value
2022-07-29T00:01:53.564Z,22.01
2022-07-29T00:04:22.356Z,21.67
2022-07-29T00:06:50.547Z,21.52
2022-07-29T00:09:18.178Z,21.45
2022-07-29T00:11:51.435Z,21.55
2022-07-29T00:14:20.464Z,21.93
2022-07-29T00:16:48.519Z,21.88
2022-07-29T00:19:16.413Z,21.35
2022-07-29T00:21:47.396Z,20.99
2022-07-29T00:24:16.064Z,21.28
2022-07-29T00:26:44.215Z,21.23
2022-07-29T00:29:33.612Z,21.06
2022-07-29T00:32:08.826Z,21.22
2022-07-29T00:34:53.808Z,21.52
2022-07-29T00:37:22.832Z,21.30
2022-07-29T00:39:50.866Z,21.10
2022-07-29T00:42:18.917Z,21.19
2022-07-29T00:44:51.422Z,19.83
2022-07-29T00:47:21.149Z,21.84
2022-07-29T00:49:50.614Z,21.47
2022-07-29T00:52:18.564Z,21.41
2022-07-29T00:54:46.265Z,21.20
2022-07-29T00:57:14.406Z,21.18
2022-07-29T00:59:42.311Z,20.80
2022-07-29T01:02:10.495Z,21.09
2022-07-29T01:04:40.601Z,21.49
2022-07-29T01:07:09.087Z,21.19
2022-07-29T01:09:46.747Z,21.44
2022-07-29T01:12:19.338Z,21.22
2022-07-29T01:14:47.516Z,21.63
2022-07-29T01:17:18.939Z,21.20
2022-07-29T01:20:00.843Z,20.94
2022-07-29T01:22:31.050Z,21.17
2022-07-29T01:25:08.112Z,20.94
2022-07-29T01:27:41.795Z,21.04
2022-07-29T01:30:11.954Z,20.90
2022-07-29T01:32:44.235Z,21.23
2022-07-29T01:35:13.471Z,21.51
2022-07-29T01:37:44.364Z,21.35
2022-07-29T01:40:16.601Z,21.29
2022-07-29T01:42:45.520Z,21.34
2022-07-29T01:45:16.283Z,21.43
2022-07-29T01:47:46.628Z,21.20
2022-07-29T01:50:17.661Z,21.52
2022-07-29T01:52:46.756Z,21.81
2022-07-29T01:55:18.357Z,21.79
2022-07-29T01:57:48.859Z,21.72
2022-07-29T02:00:21.189Z,21.83
2022-07-29T02:02:49.047Z,21.44
2022-07-29T02:05:20.233Z,21.71
2022-07-29T02:07:48.836Z,22.09
2022-07-29T02:10:17.008Z,22.36
2022-07-29T02:12:50.756Z,22.11
2022-07-29T02:15:20.384Z,21.73
2022-07-29T02:17:50.114Z,21.63
2022-07-29T02:20:20.173Z,22.03
2022-07-29T02:22:48.665Z,21.30
2022-07-29T02:25:20.253Z,21.25
2022-07-29T02:27:49.621Z,21.44
2022-07-29T02:30:18.100Z,21.29
2022-07-29T02:32:47.430Z,22.04
2022-07-29T02:35:18.449Z,22.08
2022-07-29T02:38:07.123Z,21.80
2022-07-29T02:40:35.242Z,21.89
2022-07-29T02:43:05.198Z,21.92
2022-07-29T02:45:33.058Z,22.13
2022-07-29T02:48:02.424Z,22.33
2022-07-29T02:50:31.767Z,22.03
2022-07-29T02:53:04.770Z,22.01
2022-07-29T02:55:33.792Z,21.59
2022-07-29T02:58:01.966Z,21.73
2022-07-29T03:00:29.997Z,21.82
2022-07-29T03:03:03.108Z,21.74
2022-07-29T03:05:32.889Z,21.13
2022-07-29T03:08:00.952Z,21.15
2022-07-29T03:10:31.536Z,21.27
2022-07-29T03:13:02.118Z,21.06
2022-07-29T03:15:31.588Z,21.35
2022-07-29T03:17:59.475Z,21.54
2022-07-29T03:20:27.808Z,21.71
2022-07-29T03:22:57.971Z,21.72
2022-07-29T03:25:25.945Z,21.38
2022-07-29T03:27:53.735Z,21.42
2022-07-29T03:30:23.858Z,21.43
2022-07-29T03:33:01.988Z,21.52
2022-07-29T03:35:30.910Z,21.10
2022-07-29T03:38:02.997Z,21.40
2022-07-29T03:40:33.412Z,21.42
2022-07-29T03:43:02.716Z,21.51
2022-07-29T03:45:34.545Z,21.65
2022-07-29T03:48:03.428Z,22.10
2022-07-29T03:50:31.708Z,21.88
2022-07-29T03:53:01.641Z,22.00
2022-07-29T03:55:30.441Z,21.72
2022-07-29T03:58:03.279Z,21.78
2022-07-29T04:00:31.278Z,21.60
2022-07-29T04:03:01.718Z,21.68
2022-07-29T04:05:30.979Z,21.94
2022-07-29T04:08:05.257Z,21.82
2022-07-29T04:10:34.121Z,21.86
2022-07-29T04:13:03.989Z,21.41
2022-07-29T04:15:35.152Z,21.08
2022-07-29T04:18:05.315Z,21.17
2022-07-29T04:20:33.576Z,21.35
2022-07-29T04:23:02.648Z,21.05
2022-07-29T04:25:31.269Z,20.83
2022-07-29T04:28:05.148Z,21.32
2022-07-29T04:30:36.527Z,21.38
2022-07-29T04:33:07.229Z,22.04
2022-07-29T04:35:38.644Z,21.73
2022-07-29T04:38:15.478Z,21.69
2022-07-29T04:40:47.153Z,22.33
2022-07-29T04:43:20.560Z,21.89
2022-07-29T04:45:53.669Z,21.65
2022-07-29T04:48:26.687Z,21.57
2022-07-29T04:50:56.699Z,21.40
2022-07-29T04:53:28.792Z,21.09
2022-07-29T04:55:56.858Z,21.08
2022-07-29T04:58:26.629Z,21.15
2022-07-29T05:00:54.506Z,21.13
2022-07-29T05:03:23.536Z,21.12
2022-07-29T05:05:51.283Z,21.15
2022-07-29T05:08:21.481Z,21.36
2022-07-29T05:10:51.722Z,21.07
2022-07-29T05:13:21.639Z,21.11
2022-07-29T05:15:50.258Z,21.53
2022-07-29T05:18:18.589Z,21.55
2022-07-29T05:20:47.911Z,21.57
2022-07-29T05:23:19.917Z,21.60
2022-07-29T05:25:48.235Z,21.61
2022-07-29T05:28:17.945Z,21.43
2022-07-29T05:30:51.965Z,21.50
2022-07-29T05:33:35.545Z,21.38
2022-07-29T05:36:07.684Z,21.17
2022-07-29T05:38:35.888Z,20.91
2022-07-29T05:41:03.921Z,21.40
2022-07-29T05:43:34.762Z,21.33
2022-07-29T05:46:05.441Z,21.59
2022-07-29T05:48:34.165Z,21.57
2022-07-29T05:51:02.445Z,21.73
2022-07-29T05:53:30.994Z,21.92
2022-07-29T05:56:00.215Z,22.47
2022-07-29T05:58:28.110Z,22.94
2022-07-29T06:01:00.246Z,23.00
2022-07-29T06:03:28.507Z,24.07
2022-07-29T06:05:56.206Z,23.98
2022-07-29T06:08:24.743Z,24.20
2022-07-29T06:10:53.336Z,23.88
2022-07-29T06:13:21.608Z,24.05
2022-07-29T06:15:49.887Z,24.27
2022-07-29T06:18:21.780Z,24.61
2022-07-29T06:20:49.476Z,24.10
2022-07-29T06:23:17.094Z,22.17
2022-07-29T06:25:44.899Z,23.15
2022-07-29T06:28:12.668Z,23.20
2022-07-29T06:30:41.014Z,23.22
2022-07-29T06:33:09.517Z,23.33
2022-07-29T06:35:43.262Z,23.12
2022-07-29T06:38:31.360Z,23.13
2022-07-29T06:41:02.754Z,24.04
2022-07-29T06:43:32.591Z,24.03
2022-07-29T06:46:02.524Z,24.01
2022-07-29T06:48:31.560Z,24.47
2022-07-29T06:51:05.574Z,24.00
2022-07-29T06:53:33.624Z,25.01
2022-07-29T06:56:03.225Z,24.72
2022-07-29T06:58:31.446Z,25.37
2022-07-29T07:00:59.458Z,25.02
2022-07-29T07:03:27.491Z,24.65
2022-07-29T07:05:55.958Z,25.35
2022-07-29T07:08:26.144Z,26.07
2022-07-29T07:10:54.052Z,26.40
2022-07-29T07:13:22.023Z,26.54
2022-07-29T07:15:51.755Z,26.37
2022-07-29T07:18:20.735Z,26.23
2022-07-29T07:20:48.959Z,25.55
2022-07-29T07:23:18.174Z,25.77
2022-07-29T07:25:47.486Z,26.01
2022-07-29T07:28:15.187Z,26.95
2022-07-29T07:30:42.877Z,27.19
2022-07-29T07:33:13.895Z,26.99
2022-07-29T07:35:41.843Z,26.93
2022-07-29T07:38:09.575Z,26.81
2022-07-29T07:40:38.537Z,26.99
2022-07-29T07:43:08.228Z,27.22
2022-07-29T07:45:38.216Z,26.43
2022-07-29T07:48:06.607Z,27.21
2022-07-29T07:50:34.738Z,27.43
2022-07-29T07:53:03.439Z,25.31
2022-07-29T07:55:47.476Z,26.90
2022-07-29T07:58:20.384Z,26.71
2022-07-29T08:00:51.119Z,26.60
2022-07-29T08:03:19.293Z,26.78
2022-07-29T08:05:47.844Z,26.97
2022-07-29T08:08:15.620Z,26.48
2022-07-29T08:10:57.257Z,25.76
2022-07-29T08:13:29.281Z,26.22
2022-07-29T08:16:01.308Z,25.99
2022-07-29T08:18:30.516Z,26.43
2022-07-29T08:21:01.258Z,27.03
2022-07-29T08:23:47.115Z,27.26
2022-07-29T08:26:16.616Z,27.03
2022-07-29T08:28:49.704Z,27.15
2022-07-29T08:31:17.650Z,26.87
2022-07-29T08:33:45.648Z,26.79
2022-07-29T08:36:14.280Z,26.95
2022-07-29T08:38:44.884Z,26.77
2022-07-29T08:41:12.994Z,26.58
2022-07-29T08:43:42.395Z,27.16
2022-07-29T08:46:12.320Z,26.87
2022-07-29T08:48:40.520Z,26.86
2022-07-29T08:51:09.154Z,26.38
2022-07-29T08:53:42.322Z,26.92
2022-07-29T08:56:10.729Z,26.99
2022-07-29T08:58:39.730Z,26.85
2022-07-29T09:01:12.515Z,27.23
2022-07-29T09:03:44.166Z,27.23
2022-07-29T09:06:14.862Z,27.18
2022-07-29T09:08:43.059Z,26.93
2022-07-29T09:11:13.241Z,26.86
2022-07-29T09:13:41.531Z,27.28
2022-07-29T09:16:31.617Z,26.75
2022-07-29T09:19:05.392Z,27.48
2022-07-29T09:21:53.563Z,27.47
2022-07-29T09:24:21.739Z,27.50
2022-07-29T09:26:49.711Z,27.55
2022-07-29T09:29:18.099Z,26.94
2022-07-29T09:31:47.676Z,27.82
2022-07-29T09:34:21.203Z,27.88
2022-07-29T09:36:51.520Z,28.07
2022-07-29T09:39:32.954Z,27.67
2022-07-29T09:42:04.748Z,27.52
2022-07-29T09:44:45.979Z,27.66
2022-07-29T09:47:16.199Z,27.42
2022-07-29T09:49:55.641Z,26.43
2022-07-29T09:52:23.793Z,27.77
2022-07-29T09:54:54.746Z,27.35
2022-07-29T09:57:31.427Z,26.87
2022-07-29T10:00:01.291Z,27.42
2022-07-29T10:02:33.387Z,27.62
2022-07-29T10:05:02.996Z,26.98
2022-07-29T10:07:49.409Z,27.47
2022-07-29T10:10:23.254Z,27.49
2022-07-29T10:12:52.192Z,27.28
2022-07-29T10:15:22.138Z,27.73
2022-07-29T10:17:56.952Z,27.50
2022-07-29T10:20:26.843Z,26.87
2022-07-29T10:22:55.505Z,26.61
2022-07-29T10:25:23.396Z,26.86
2022-07-29T10:27:52.184Z,26.57
2022-07-29T10:30:20.445Z,27.00
2022-07-29T10:33:00.624Z,26.82
2022-07-29T10:35:43.114Z,27.02
2022-07-29T10:38:32.250Z,26.45
2022-07-29T10:41:20.545Z,27.14
2022-07-29T10:43:51.395Z,27.13
2022-07-29T10:46:20.881Z,27.17
2022-07-29T10:49:06.545Z,26.54
2022-07-29T10:52:09.022Z,25.71
2022-07-29T10:54:42.504Z,25.14
2022-07-29T10:57:15.614Z,24.90
2022-07-29T10:59:44.220Z,25.62
2022-07-29T11:02:42.758Z,26.02
2022-07-29T11:05:15.964Z,26.44
2022-07-29T11:07:58.945Z,26.19
2022-07-29T11:10:32.224Z,25.45
2022-07-29T11:13:00.059Z,25.90
2022-07-29T11:15:28.678Z,25.41
2022-07-29T11:18:06.441Z,26.69
2022-07-29T11:20:36.461Z,27.17
2022-07-29T11:23:11.597Z,28.28
2022-07-29T11:25:50.977Z,28.61
2022-07-29T11:31:08.989Z,28.82
2022-07-29T11:33:56.459Z,28.96
2022-07-29T11:36:28.040Z,28.59
2022-07-29T11:38:56.542Z,27.44
2022-07-29T11:41:31.873Z,26.57
2022-07-29T11:44:01.689Z,26.35
2022-07-29T11:46:50.013Z,26.75
2022-07-29T11:49:22.108Z,25.92
2022-07-29T11:52:02.607Z,26.61
2022-07-29T11:54:33.175Z,27.59
2022-07-29T11:57:10.662Z,26.96
2022-07-29T11:59:42.620Z,27.39
2022-07-29T12:02:37.129Z,26.81
2022-07-29T12:05:00.626Z,26.95
2022-07-29T12:07:39.488Z,27.08
2022-07-29T12:10:11.374Z,25.84
2022-07-29T12:13:00.246Z,25.50
2022-07-29T12:15:45.534Z,25.75
2022-07-29T12:18:15.074Z,25.88
2022-07-29T12:20:43.413Z,26.04
2022-07-29T12:23:13.949Z,25.52
2022-07-29T12:25:44.769Z,25.77
2022-07-29T12:28:26.830Z,25.77
2022-07-29T12:30:59.590Z,25.61
2022-07-29T12:33:28.717Z,24.58
2022-07-29T12:36:17.286Z,25.33
2022-07-29T12:38:45.192Z,25.67
2022-07-29T12:41:18.674Z,25.37
2022-07-29T12:43:55.887Z,25.26
2022-07-29T12:46:23.636Z,24.96
2022-07-29T12:48:55.601Z,24.88
2022-07-29T12:51:33.379Z,24.94
2022-07-29T12:54:04.596Z,24.40
2022-07-29T12:56:45.300Z,24.78
2022-07-29T12:59:16.663Z,24.95
2022-07-29T13:01:45.912Z,24.81
2022-07-29T13:04:14.047Z,24.69
2022-07-29T13:06:46.134Z,24.54
2022-07-29T13:09:19.512Z,24.86
2022-07-29T13:11:48.837Z,23.31
2022-07-29T13:14:32.219Z,24.23
2022-07-29T13:17:03.637Z,24.71
2022-07-29T13:19:38.390Z,24.76
2022-07-29T13:22:06.394Z,24.44
2022-07-29T13:24:34.014Z,24.15
2022-07-29T13:27:01.745Z,24.03
2022-07-29T13:29:35.272Z,24.30
2022-07-29T13:32:03.003Z,24.48
2022-07-29T13:34:30.756Z,24.56
2022-07-29T13:36:58.527Z,24.76
2022-07-29T13:39:26.244Z,25.20
2022-07-29T13:41:57.522Z,25.79
2022-07-29T13:44:25.654Z,25.38
2022-07-29T13:46:54.945Z,25.35
2022-07-29T13:49:23.521Z,25.48
2022-07-29T13:51:51.641Z,24.98
2022-07-29T13:54:21.248Z,25.67
2022-07-29T13:56:49.883Z,25.46
2022-07-29T13:59:20.829Z,26.06
2022-07-29T14:01:49.019Z,26.86
2022-07-29T14:04:18.346Z,26.02
2022-07-29T14:06:46.061Z,26.28
2022-07-29T14:09:15.075Z,26.27
2022-07-29T14:11:44.963Z,26.46
2022-07-29T14:14:15.091Z,25.98
2022-07-29T14:16:47.573Z,26.15
2022-07-29T14:19:18.230Z,25.97
2022-07-29T14:21:46.383Z,26.71
2022-07-29T14:24:21.468Z,25.98
2022-07-29T14:26:49.548Z,26.51
2022-07-29T14:29:36.885Z,26.40
2022-07-29T14:32:08.917Z,26.22
2022-07-29T14:34:38.598Z,27.03
2022-07-29T14:37:07.258Z,26.41
2022-07-29T14:39:39.327Z,26.06
2022-07-29T14:42:11.584Z,26.68
2022-07-29T14:44:41.448Z,25.85
2022-07-29T14:47:09.282Z,27.57
2022-07-29T14:49:39.625Z,27.50
2022-07-29T14:52:09.311Z,26.53
2022-07-29T14:54:37.002Z,27.46
2022-07-29T14:57:04.819Z,27.28
2022-07-29T14:59:33.213Z,27.81
2022-07-29T15:02:01.651Z,27.12
2022-07-29T15:04:29.620Z,26.57
2022-07-29T15:06:58.961Z,26.90
2022-07-29T15:09:26.583Z,27.51
2022-07-29T15:11:55.192Z,27.59
2022-07-29T15:14:23.380Z,26.91
2022-07-29T15:16:52.725Z,27.55
2022-07-29T15:19:21.255Z,27.56
2022-07-29T15:21:49.291Z,27.21
2022-07-29T15:24:19.030Z,27.74
2022-07-29T15:26:47.185Z,27.90
2022-07-29T15:29:18.086Z,28.27
2022-07-29T15:31:48.356Z,28.54
2022-07-29T15:34:16.171Z,29.08
2022-07-29T15:36:52.422Z,28.80
2022-07-29T15:39:22.613Z,27.51
2022-07-29T15:41:50.438Z,28.16
2022-07-29T15:44:18.217Z,27.44
2022-07-29T15:47:03.405Z,27.70
2022-07-29T15:49:47.316Z,28.22
2022-07-29T15:52:24.938Z,28.53
2022-07-29T15:54:56.590Z,28.12
2022-07-29T15:57:24.776Z,28.34
2022-07-29T15:59:52.946Z,27.73
2022-07-29T16:02:20.749Z,26.59
2022-07-29T16:04:59.710Z,27.11
2022-07-29T16:07:31.740Z,27.11
2022-07-29T16:10:02.024Z,26.62
2022-07-29T16:12:30.322Z,26.69
2022-07-29T16:14:58.063Z,27.45
2022-07-29T16:17:29.938Z,27.51
2022-07-29T16:19:57.925Z,27.12
2022-07-29T16:22:25.899Z,27.30
2022-07-29T16:24:53.660Z,26.86
2022-07-29T16:27:27.096Z,27.22
2022-07-29T16:30:05.434Z,27.13
2022-07-29T16:32:33.598Z,27.37
2022-07-29T16:35:04.055Z,27.57
2022-07-29T16:37:36.630Z,27.53
2022-07-29T16:40:05.120Z,27.23
2022-07-29T16:42:46.715Z,27.60
2022-07-29T16:45:17.968Z,27.52
2022-07-29T16:47:49.018Z,27.70
2022-07-29T16:50:17.496Z,27.16
2022-07-29T16:52:45.199Z,27.28
2022-07-29T16:55:13.993Z,27.25
2022-07-29T16:57:44.241Z,27.13
2022-07-29T17:00:12.745Z,27.35
2022-07-29T17:02:40.444Z,27.09
2022-07-29T17:05:09.092Z,27.19
2022-07-29T17:07:39.461Z,27.29
2022-07-29T17:10:09.109Z,27.52
2022-07-29T17:12:40.877Z,27.64
2022-07-29T17:15:11.739Z,27.43
2022-07-29T17:17:55.390Z,26.82
2022-07-29T17:20:24.806Z,26.99
2022-07-29T17:22:56.488Z,27.06
2022-07-29T17:25:26.971Z,27.07
2022-07-29T17:28:00.554Z,26.97
2022-07-29T17:30:30.531Z,26.60
2022-07-29T17:32:59.280Z,26.75
2022-07-29T17:35:48.456Z,26.65
2022-07-29T17:38:16.339Z,26.97
2022-07-29T17:40:45.944Z,27.19
2022-07-29T17:43:13.698Z,27.18
2022-07-29T17:45:49.786Z,27.04
2022-07-29T17:48:21.286Z,27.07
2022-07-29T17:50:49.793Z,27.39
2022-07-29T17:53:17.545Z,27.05
2022-07-29T17:55:46.022Z,27.28
2022-07-29T17:58:13.876Z,27.33
2022-07-29T18:00:43.429Z,27.12
2022-07-29T18:03:11.507Z,27.38
2022-07-29T18:05:39.565Z,26.71
2022-07-29T18:08:07.905Z,26.99
2022-07-29T18:10:36.521Z,26.94
2022-07-29T18:13:05.884Z,27.09
2022-07-29T18:15:38.077Z,27.25
2022-07-29T18:18:10.074Z,26.85
2022-07-29T18:20:38.263Z,27.14
2022-07-29T18:23:06.190Z,27.66
2022-07-29T18:25:42.247Z,27.22
2022-07-29T18:28:10.001Z,27.08
2022-07-29T18:30:38.185Z,27.56
2022-07-29T18:33:24.297Z,27.35
2022-07-29T18:36:10.523Z,26.93
2022-07-29T18:38:52.969Z,27.01
2022-07-29T18:41:20.713Z,26.20
2022-07-29T18:43:59.785Z,26.48
2022-07-29T18:46:28.171Z,27.14
2022-07-29T18:48:59.658Z,27.01
2022-07-29T18:51:27.954Z,27.30
2022-07-29T18:53:56.343Z,27.28
2022-07-29T18:56:23.991Z,27.19
2022-07-29T18:59:04.886Z,26.86
2022-07-29T19:01:32.952Z,27.13
2022-07-29T19:04:04.963Z,26.77
2022-07-29T19:06:33.213Z,26.91
2022-07-29T19:09:02.053Z,27.03
2022-07-29T19:11:31.798Z,27.15
2022-07-29T19:13:59.800Z,26.98
2022-07-29T19:16:27.857Z,26.76
2022-07-29T19:18:56.104Z,27.10
2022-07-29T19:21:28.067Z,27.12
2022-07-29T19:24:01.390Z,26.34
2022-07-29T19:26:39.286Z,25.87
2022-07-29T19:29:08.467Z,26.38
2022-07-29T19:31:36.223Z,25.90
2022-07-29T19:34:03.970Z,25.94
2022-07-29T19:36:33.761Z,25.95
2022-07-29T19:39:02.185Z,25.80
2022-07-29T19:41:32.975Z,25.72
2022-07-29T19:44:00.907Z,25.61
2022-07-29T19:46:29.167Z,25.54
2022-07-29T19:48:57.088Z,25.66
2022-07-29T19:51:25.074Z,25.49
2022-07-29T19:53:54.114Z,25.38
2022-07-29T19:56:22.962Z,25.44
2022-07-29T19:58:52.055Z,25.72
2022-07-29T20:01:20.788Z,25.76
2022-07-29T20:03:48.497Z,25.91
2022-07-29T20:06:16.878Z,25.47
2022-07-29T20:08:45.574Z,25.11
2022-07-29T20:11:15.197Z,25.06
2022-07-29T20:13:42.831Z,24.83
2022-07-29T20:16:10.800Z,24.79
2022-07-29T20:18:40.321Z,25.05
2022-07-29T20:21:07.938Z,25.41
2022-07-29T20:23:35.628Z,25.18
2022-07-29T20:26:07.293Z,25.57
2022-07-29T20:28:45.325Z,25.95
2022-07-29T20:31:16.891Z,26.10
2022-07-29T20:33:44.727Z,25.80
2022-07-29T20:36:12.424Z,25.17
2022-07-29T20:38:40.772Z,24.93
2022-07-29T20:41:11.378Z,24.95
2022-07-29T20:43:40.973Z,25.08
2022-07-29T20:46:08.642Z,25.17
2022-07-29T20:48:40.794Z,25.21
2022-07-29T20:51:08.671Z,25.42
2022-07-29T20:53:36.581Z,25.44
2022-07-29T20:56:04.354Z,25.16
2022-07-29T20:58:32.772Z,25.31
2022-07-29T21:01:02.341Z,25.15
2022-07-29T21:03:44.304Z,25.29
2022-07-29T21:06:12.007Z,25.31
2022-07-29T21:08:39.661Z,25.25
2022-07-29T21:11:07.358Z,25.15
2022-07-29T21:13:39.527Z,25.10
2022-07-29T21:16:16.397Z,24.95
2022-07-29T21:18:46.486Z,24.56
2022-07-29T21:21:16.763Z,24.35
2022-07-29T21:23:46.766Z,24.43
2022-07-29T21:26:16.041Z,24.55
2022-07-29T21:28:45.662Z,24.59
2022-07-29T21:31:19.519Z,24.60
2022-07-29T21:33:47.731Z,24.59
2022-07-29T21:36:46.404Z,24.47
2022-07-29T21:39:07.310Z,24.49
2022-07-29T21:41:35.853Z,24.53
2022-07-29T21:44:05.550Z,24.25
2022-07-29T21:46:43.745Z,24.26
2022-07-29T21:49:17.108Z,24.42
2022-07-29T21:51:45.178Z,24.63
2022-07-29T21:54:15.212Z,24.55
2022-07-29T21:56:43.086Z,24.39
2022-07-29T21:59:18.825Z,24.15
2022-07-29T22:01:48.411Z,24.30
2022-07-29T22:04:20.972Z,24.21
2022-07-29T22:06:49.071Z,24.26
2022-07-29T22:09:16.803Z,24.37
2022-07-29T22:11:44.766Z,24.36
2022-07-29T22:14:12.513Z,23.94
2022-07-29T22:16:43.151Z,24.14
2022-07-29T22:19:12.629Z,24.20
2022-07-29T22:21:40.882Z,24.10
2022-07-29T22:24:11.446Z,23.45
2022-07-29T22:26:39.359Z,23.71
2022-07-29T22:29:07.018Z,23.48
2022-07-29T22:31:34.727Z,23.30
2022-07-29T22:34:05.679Z,23.61
2022-07-29T22:36:36.158Z,23.83
2022-07-29T22:39:04.288Z,23.73
2022-07-29T22:41:31.889Z,23.03
2022-07-29T22:44:03.517Z,23.11
2022-07-29T22:46:31.269Z,23.38
2022-07-29T22:48:59.474Z,23.14
2022-07-29T22:51:39.779Z,22.55
2022-07-29T22:54:13.432Z,23.08
2022-07-29T22:56:41.668Z,23.17
2022-07-29T22:59:14.288Z,23.26
2022-07-29T23:01:42.479Z,22.65
2022-07-29T23:04:10.434Z,22.70
2022-07-29T23:06:38.553Z,22.01
2022-07-29T23:09:06.376Z,21.98
2022-07-29T23:11:36.132Z,22.41
2022-07-29T23:14:04.159Z,22.42
2022-07-29T23:16:32.003Z,21.93
2022-07-29T23:19:01.116Z,21.62
2022-07-29T23:21:30.834Z,22.43
2022-07-29T23:24:00.925Z,21.88
2022-07-29T23:26:31.426Z,21.81
2022-07-29T23:29:00.802Z,22.30
2022-07-29T23:31:28.471Z,22.08
2022-07-29T23:33:56.184Z,22.38
2022-07-29T23:36:27.848Z,21.78
2022-07-29T23:38:57.409Z,21.87
2022-07-29T23:41:25.326Z,21.47
2022-07-29T23:43:55.667Z,21.36
2022-07-29T23:46:27.426Z,20.96
2022-07-29T23:48:55.492Z,20.92
2022-07-29T23:51:23.214Z,20.45
2022-07-29T23:53:53.785Z,20.89
2022-07-29T23:56:22.018Z,20.58
2022-07-29T23:58:49.777Z,20.73
